sensor_id;sensor_type;location;lat;lon;timestamp;pressure;altitude;pressure_sealevel;temperature
61703;BMP280;47622;47.726;3.298;2022-08-18T00:02:21;98814.22;;;19.45
61703;BMP280;47622;47.726;3.298;2022-08-18T00:04:48;98819.13;;;19.43
61703;BMP280;47622;47.726;3.298;2022-08-18T00:07:17;98824.41;;;19.36
61703;BMP280;47622;47.726;3.298;2022-08-18T00:09:43;98825.41;;;19.20
61703;BMP280;47622;47.726;3.298;2022-08-18T00:12:18;98818.25;;;19.24
61703;BMP280;47622;47.726;3.298;2022-08-18T00:14:45;98818.97;;;19.21
61703;BMP280;47622;47.726;3.298;2022-08-18T00:17:12;98821.66;;;19.25
61703;BMP280;47622;47.726;3.298;2022-08-18T00:19:38;98828.88;;;19.28
61703;BMP280;47622;47.726;3.298;2022-08-18T00:22:04;98825.13;;;19.29
61703;BMP280;47622;47.726;3.298;2022-08-18T00:24:30;98814.88;;;19.31
61703;BMP280;47622;47.726;3.298;2022-08-18T00:26:57;98811.81;;;19.29
61703;BMP280;47622;47.726;3.298;2022-08-18T00:29:24;98799.25;;;19.26
61703;BMP280;47622;47.726;3.298;2022-08-18T00:31:50;98796.56;;;19.22
61703;BMP280;47622;47.726;3.298;2022-08-18T00:34:16;98812.94;;;19.24
61703;BMP280;47622;47.726;3.298;2022-08-18T00:36:44;98803.38;;;19.23
61703;BMP280;47622;47.726;3.298;2022-08-18T00:39:11;98806.03;;;19.23
61703;BMP280;47622;47.726;3.298;2022-08-18T00:41:37;98791.59;;;19.17
61703;BMP280;47622;47.726;3.298;2022-08-18T00:44:03;98799.16;;;19.15
61703;BMP280;47622;47.726;3.298;2022-08-18T00:46:32;98788.53;;;19.15
61703;BMP280;47622;47.726;3.298;2022-08-18T00:48:58;98793.13;;;19.18
61703;BMP280;47622;47.726;3.298;2022-08-18T00:54:06;98787.81;;;19.18
61703;BMP280;47622;47.726;3.298;2022-08-18T00:56:42;98778.66;;;19.16
61703;BMP280;47622;47.726;3.298;2022-08-18T01:01:45;98782.47;;;19.18
61703;BMP280;47622;47.726;3.298;2022-08-18T01:04:23;98784.34;;;19.14
61703;BMP280;47622;47.726;3.298;2022-08-18T01:06:57;98784.72;;;19.13
61703;BMP280;47622;47.726;3.298;2022-08-18T01:09:25;98798.81;;;19.13
61703;BMP280;47622;47.726;3.298;2022-08-18T01:11:51;98794.25;;;19.14
61703;BMP280;47622;47.726;3.298;2022-08-18T01:14:18;98797.59;;;19.11
61703;BMP280;47622;47.726;3.298;2022-08-18T01:16:49;98798.38;;;19.11
61703;BMP280;47622;47.726;3.298;2022-08-18T01:19:34;98799.91;;;19.09
61703;BMP280;47622;47.726;3.298;2022-08-18T01:22:23;98791.47;;;19.00
61703;BMP280;47622;47.726;3.298;2022-08-18T01:24:51;98791.41;;;18.96
61703;BMP280;47622;47.726;3.298;2022-08-18T01:27:38;98792.91;;;18.93
61703;BMP280;47622;47.726;3.298;2022-08-18T01:30:10;98786.00;;;18.82
61703;BMP280;47622;47.726;3.298;2022-08-18T01:32:38;98797.31;;;18.79
61703;BMP280;47622;47.726;3.298;2022-08-18T01:35:07;98801.19;;;18.81
61703;BMP280;47622;47.726;3.298;2022-08-18T01:37:35;98795.88;;;18.85
61703;BMP280;47622;47.726;3.298;2022-08-18T01:40:06;98797.41;;;18.86
61703;BMP280;47622;47.726;3.298;2022-08-18T01:42:34;98792.41;;;18.81
61703;BMP280;47622;47.726;3.298;2022-08-18T01:45:01;98789.34;;;18.79
61703;BMP280;47622;47.726;3.298;2022-08-18T01:47:28;98791.97;;;18.72
61703;BMP280;47622;47.726;3.298;2022-08-18T01:49:56;98789.69;;;18.74
61703;BMP280;47622;47.726;3.298;2022-08-18T01:52:23;98780.94;;;18.73
61703;BMP280;47622;47.726;3.298;2022-08-18T01:54:50;98777.59;;;18.76
61703;BMP280;47622;47.726;3.298;2022-08-18T01:57:18;98774.13;;;18.76
61703;BMP280;47622;47.726;3.298;2022-08-18T01:59:44;98782.50;;;18.78
61703;BMP280;47622;47.726;3.298;2022-08-18T02:02:15;98777.56;;;18.73
61703;BMP280;47622;47.726;3.298;2022-08-18T02:04:42;98773.03;;;18.77
61703;BMP280;47622;47.726;3.298;2022-08-18T02:07:11;98774.47;;;18.71
61703;BMP280;47622;47.726;3.298;2022-08-18T02:09:38;98769.16;;;18.71
61703;BMP280;47622;47.726;3.298;2022-08-18T02:12:06;98769.97;;;18.75
61703;BMP280;47622;47.726;3.298;2022-08-18T02:14:34;98777.59;;;18.76
61703;BMP280;47622;47.726;3.298;2022-08-18T02:17:01;98779.50;;;18.79
61703;BMP280;47622;47.726;3.298;2022-08-18T02:19:34;98771.13;;;18.77
61703;BMP280;47622;47.726;3.298;2022-08-18T02:22:01;98773.03;;;18.77
61703;BMP280;47622;47.726;3.298;2022-08-18T02:24:27;98772.28;;;18.80
61703;BMP280;47622;47.726;3.298;2022-08-18T02:26:53;98781.72;;;18.74
61703;BMP280;47622;47.726;3.298;2022-08-18T02:29:20;98778.25;;;18.70
61703;BMP280;47622;47.726;3.298;2022-08-18T02:31:46;98784.69;;;18.69
61703;BMP280;47622;47.726;3.298;2022-08-18T02:34:14;98780.13;;;18.66
61703;BMP280;47622;47.726;3.298;2022-08-18T02:36:40;98786.22;;;18.70
61703;BMP280;47622;47.726;3.298;2022-08-18T02:39:06;98786.53;;;18.65
61703;BMP280;47622;47.726;3.298;2022-08-18T02:41:32;98788.84;;;18.63
61703;BMP280;47622;47.726;3.298;2022-08-18T02:43:58;98795.56;;;18.53
61703;BMP280;47622;47.726;3.298;2022-08-18T02:46:26;98791.69;;;18.47
61703;BMP280;47622;47.726;3.298;2022-08-18T02:48:52;98793.69;;;18.57
61703;BMP280;47622;47.726;3.298;2022-08-18T02:51:19;98789.41;;;18.45
61703;BMP280;47622;47.726;3.298;2022-08-18T02:53:46;98790.91;;;18.46
61703;BMP280;47622;47.726;3.298;2022-08-18T02:56:17;98796.22;;;18.46
61703;BMP280;47622;47.726;3.298;2022-08-18T02:58:46;98805.31;;;18.45
61703;BMP280;47622;47.726;3.298;2022-08-18T03:01:12;98798.84;;;18.43
61703;BMP280;47622;47.726;3.298;2022-08-18T03:03:38;98799.59;;;18.43
61703;BMP280;47622;47.726;3.298;2022-08-18T03:06:05;98806.47;;;18.44
61703;BMP280;47622;47.726;3.298;2022-08-18T03:08:32;98796.97;;;18.43
61703;BMP280;47622;47.726;3.298;2022-08-18T03:10:58;98790.06;;;18.35
61703;BMP280;47622;47.726;3.298;2022-08-18T03:13:24;98786.19;;;18.29
61703;BMP280;47622;47.726;3.298;2022-08-18T03:15:51;98796.88;;;18.36
61703;BMP280;47622;47.726;3.298;2022-08-18T03:18:17;98798.03;;;18.35
61703;BMP280;47622;47.726;3.298;2022-08-18T03:20:43;98798.41;;;18.37
61703;BMP280;47622;47.726;3.298;2022-08-18T03:23:10;98803.75;;;18.41
61703;BMP280;47622;47.726;3.298;2022-08-18T03:25:44;98806.00;;;18.39
61703;BMP280;47622;47.726;3.298;2022-08-18T03:28:10;98812.81;;;18.36
61703;BMP280;47622;47.726;3.298;2022-08-18T03:30:37;98810.53;;;18.35
61703;BMP280;47622;47.726;3.298;2022-08-18T03:33:03;98804.78;;;18.29
61703;BMP280;47622;47.726;3.298;2022-08-18T03:35:29;98804.31;;;18.23
61703;BMP280;47622;47.726;3.298;2022-08-18T03:37:58;98799.03;;;18.27
61703;BMP280;47622;47.726;3.298;2022-08-18T03:40:25;98785.69;;;18.20
61703;BMP280;47622;47.726;3.298;2022-08-18T03:42:51;98792.53;;;18.21
61703;BMP280;47622;47.726;3.298;2022-08-18T03:45:18;98796.31;;;18.20
61703;BMP280;47622;47.726;3.298;2022-08-18T03:47:44;98796.69;;;18.18
61703;BMP280;47622;47.726;3.298;2022-08-18T03:50:11;98803.47;;;18.16
61703;BMP280;47622;47.726;3.298;2022-08-18T03:52:37;98811.03;;;18.14
61703;BMP280;47622;47.726;3.298;2022-08-18T03:55:04;98820.13;;;18.16
61703;BMP280;47622;47.726;3.298;2022-08-18T03:57:30;98820.38;;;18.34
61703;BMP280;47622;47.726;3.298;2022-08-18T03:59:57;98818.84;;;18.33
61703;BMP280;47622;47.726;3.298;2022-08-18T04:02:23;98817.72;;;18.34
61703;BMP280;47622;47.726;3.298;2022-08-18T04:04:49;98818.81;;;18.30
61703;BMP280;47622;47.726;3.298;2022-08-18T04:07:16;98813.81;;;18.24
61703;BMP280;47622;47.726;3.298;2022-08-18T04:09:43;98826.34;;;18.24
61703;BMP280;47622;47.726;3.298;2022-08-18T04:12:13;98820.91;;;18.17
61703;BMP280;47622;47.726;3.298;2022-08-18T04:14:41;98825.88;;;18.18
61703;BMP280;47622;47.726;3.298;2022-08-18T04:17:08;98823.06;;;18.08
61703;BMP280;47622;47.726;3.298;2022-08-18T04:19:35;98815.56;;;18.13
61703;BMP280;47622;47.726;3.298;2022-08-18T04:22:03;98818.69;;;18.19
61703;BMP280;47622;47.726;3.298;2022-08-18T04:24:30;98810.72;;;18.19
61703;BMP280;47622;47.726;3.298;2022-08-18T04:26:57;98815.72;;;18.24
61703;BMP280;47622;47.726;3.298;2022-08-18T04:29:24;98817.25;;;18.25
61703;BMP280;47622;47.726;3.298;2022-08-18T04:31:51;98817.16;;;18.18
61703;BMP280;47622;47.726;3.298;2022-08-18T04:34:18;98820.91;;;18.17
61703;BMP280;47622;47.726;3.298;2022-08-18T04:36:45;98832.28;;;18.17
61703;BMP280;47622;47.726;3.298;2022-08-18T04:39:12;98830.72;;;18.13
61703;BMP280;47622;47.726;3.298;2022-08-18T04:41:41;98830.00;;;18.16
61703;BMP280;47622;47.726;3.298;2022-08-18T04:44:08;98826.94;;;18.14
61703;BMP280;47622;47.726;3.298;2022-08-18T04:46:43;98823.19;;;18.15
61703;BMP280;47622;47.726;3.298;2022-08-18T04:49:11;98831.50;;;18.17
61703;BMP280;47622;47.726;3.298;2022-08-18T04:51:41;98830.75;;;18.16
61703;BMP280;47622;47.726;3.298;2022-08-18T04:54:09;98829.25;;;18.15
61703;BMP280;47622;47.726;3.298;2022-08-18T04:56:38;98828.44;;;18.11
61703;BMP280;47622;47.726;3.298;2022-08-18T04:59:12;98831.41;;;18.06
61703;BMP280;47622;47.726;3.298;2022-08-18T05:01:41;98829.16;;;18.08
61703;BMP280;47622;47.726;3.298;2022-08-18T05:04:08;98830.63;;;18.06
61703;BMP280;47622;47.726;3.298;2022-08-18T05:06:35;98835.94;;;18.06
61703;BMP280;47622;47.726;3.298;2022-08-18T05:09:06;98825.38;;;18.09
61703;BMP280;47622;47.726;3.298;2022-08-18T05:11:33;98826.13;;;18.10
61703;BMP280;47622;47.726;3.298;2022-08-18T05:14:01;98832.97;;;18.11
61703;BMP280;47622;47.726;3.298;2022-08-18T05:16:28;98823.78;;;18.05
61703;BMP280;47622;47.726;3.298;2022-08-18T05:18:56;98823.69;;;17.98
61703;BMP280;47622;47.726;3.298;2022-08-18T05:21:22;98830.16;;;17.97
61703;BMP280;47622;47.726;3.298;2022-08-18T05:23:49;98816.56;;;18.02
61703;BMP280;47622;47.726;3.298;2022-08-18T05:26:18;98835.22;;;18.09
61703;BMP280;47622;47.726;3.298;2022-08-18T05:28:45;98832.97;;;18.11
61703;BMP280;47622;47.726;3.298;2022-08-18T05:31:14;98839.91;;;18.19
61703;BMP280;47622;47.726;3.298;2022-08-18T05:33:41;98847.44;;;18.17
61703;BMP280;47622;47.726;3.298;2022-08-18T05:39:39;98848.13;;;18.40
61703;BMP280;47622;47.726;3.298;2022-08-18T05:42:15;98853.44;;;18.40
61703;BMP280;47622;47.726;3.298;2022-08-18T05:44:49;98856.81;;;18.37
61703;BMP280;47622;47.726;3.298;2022-08-18T05:47:26;98846.31;;;18.44
61703;BMP280;47622;47.726;3.298;2022-08-18T05:49:55;98852.84;;;18.54
61703;BMP280;47622;47.726;3.298;2022-08-18T05:52:55;98859.03;;;18.62
61703;BMP280;47622;47.726;3.298;2022-08-18T05:55:30;98864.38;;;18.69
61703;BMP280;47622;47.726;3.298;2022-08-18T05:58:21;98859.97;;;18.80
61703;BMP280;47622;47.726;3.298;2022-08-18T06:00:51;98861.09;;;18.79
61703;BMP280;47622;47.726;3.298;2022-08-18T06:03:29;98861.19;;;18.86
61703;BMP280;47622;47.726;3.298;2022-08-18T06:06:00;98859.72;;;18.92
61703;BMP280;47622;47.726;3.298;2022-08-18T06:08:32;98865.75;;;18.89
61703;BMP280;47622;47.726;3.298;2022-08-18T06:11:01;98862.41;;;18.96
61703;BMP280;47622;47.726;3.298;2022-08-18T06:13:29;98863.59;;;18.98
61703;BMP280;47622;47.726;3.298;2022-08-18T06:16:11;98865.50;;;19.01
61703;BMP280;47622;47.726;3.298;2022-08-18T06:19:02;98863.69;;;19.09
61703;BMP280;47622;47.726;3.298;2022-08-18T06:27:13;98882.81;;;19.25
61703;BMP280;47622;47.726;3.298;2022-08-18T06:30:04;98879.94;;;19.41
61703;BMP280;47622;47.726;3.298;2022-08-18T06:35:32;98874.66;;;19.48
61703;BMP280;47622;47.726;3.298;2022-08-18T06:38:32;98876.97;;;19.53
61703;BMP280;47622;47.726;3.298;2022-08-18T06:41:31;98883.13;;;19.64
61703;BMP280;47622;47.726;3.298;2022-08-18T06:44:08;98877.09;;;19.67
61703;BMP280;47622;47.726;3.298;2022-08-18T06:47:04;98883.97;;;19.75
61703;BMP280;47622;47.726;3.298;2022-08-18T06:49:44;98881.03;;;19.87
61703;BMP280;47622;47.726;3.298;2022-08-18T06:52:23;98879.91;;;19.88
61703;BMP280;47622;47.726;3.298;2022-08-18T06:54:51;98886.00;;;19.96
61703;BMP280;47622;47.726;3.298;2022-08-18T06:57:27;98883.41;;;20.07
61703;BMP280;47622;47.726;3.298;2022-08-18T06:59:56;98878.88;;;20.11
61703;BMP280;47622;47.726;3.298;2022-08-18T07:02:46;98879.25;;;20.16
61703;BMP280;47622;47.726;3.298;2022-08-18T07:05:19;98872.09;;;20.27
61703;BMP280;47622;47.726;3.298;2022-08-18T07:08:07;98869.47;;;20.31
61703;BMP280;47622;47.726;3.298;2022-08-18T07:10:43;98860.34;;;20.32
61703;BMP280;47622;47.726;3.298;2022-08-18T07:13:25;98856.94;;;20.46
61703;BMP280;47622;47.726;3.298;2022-08-18T07:15:53;98852.41;;;20.53
61703;BMP280;47622;47.726;3.298;2022-08-18T07:18:25;98862.31;;;20.56
61703;BMP280;47622;47.726;3.298;2022-08-18T07:20:55;98853.19;;;20.64
61703;BMP280;47622;47.726;3.298;2022-08-18T07:23:26;98843.34;;;20.90
61703;BMP280;47622;47.726;3.298;2022-08-18T07:26:14;98857.44;;;21.05
61703;BMP280;47622;47.726;3.298;2022-08-18T07:28:46;98856.28;;;21.38
61703;BMP280;47622;47.726;3.298;2022-08-18T07:31:35;98860.09;;;21.58
61703;BMP280;47622;47.726;3.298;2022-08-18T07:34:13;98860.06;;;21.72
61703;BMP280;47622;47.726;3.298;2022-08-18T07:36:48;98850.03;;;22.12
61703;BMP280;47622;47.726;3.298;2022-08-18T07:39:51;98856.63;;;22.59
61703;BMP280;47622;47.726;3.298;2022-08-18T07:42:59;98866.28;;;22.97
61703;BMP280;47622;47.726;3.298;2022-08-18T07:45:36;98867.63;;;23.20
61703;BMP280;47622;47.726;3.298;2022-08-18T07:48:09;98875.56;;;22.86
61703;BMP280;47622;47.726;3.298;2022-08-18T08:04:52;98907.09;;;22.53
61703;BMP280;47622;47.726;3.298;2022-08-18T08:07:38;98906.22;;;22.67
61703;BMP280;47622;47.726;3.298;2022-08-18T08:10:29;98907.66;;;22.86
61703;BMP280;47622;47.726;3.298;2022-08-18T08:13:16;98901.50;;;22.89
61703;BMP280;47622;47.726;3.298;2022-08-18T08:15:54;98902.59;;;23.02
61703;BMP280;47622;47.726;3.298;2022-08-18T08:18:44;98918.13;;;23.18
61703;BMP280;47622;47.726;3.298;2022-08-18T08:21:17;98918.06;;;23.28
61703;BMP280;47622;47.726;3.298;2022-08-18T08:23:55;98927.94;;;23.31
61703;BMP280;47622;47.726;3.298;2022-08-18T08:27:04;98919.78;;;23.45
61703;BMP280;47622;47.726;3.298;2022-08-18T08:35:13;98921.69;;;24.20
61703;BMP280;47622;47.726;3.298;2022-08-18T08:37:58;98930.38;;;24.58
61703;BMP280;47622;47.726;3.298;2022-08-18T08:43:13;98928.44;;;24.85
61703;BMP280;47622;47.726;3.298;2022-08-18T08:46:03;98929.75;;;25.01
61703;BMP280;47622;47.726;3.298;2022-08-18T08:48:34;98941.38;;;24.67
61703;BMP280;47622;47.726;3.298;2022-08-18T08:51:24;98942.38;;;24.80
61703;BMP280;47622;47.726;3.298;2022-08-18T08:53:58;98937.91;;;24.70
61703;BMP280;47622;47.726;3.298;2022-08-18T08:56:32;98927.84;;;24.74
61703;BMP280;47622;47.726;3.298;2022-08-18T08:59:13;98924.69;;;24.83
61703;BMP280;47622;47.726;3.298;2022-08-18T09:05:00;98914.06;;;25.85
61703;BMP280;47622;47.726;3.298;2022-08-18T09:11:32;98894.31;;;26.80
61703;BMP280;47622;47.726;3.298;2022-08-18T09:13:33;98893.31;;;26.58
61703;BMP280;47622;47.726;3.298;2022-08-18T09:22:02;98900.56;;;28.77
61703;BMP280;47622;47.726;3.298;2022-08-18T09:24:44;98903.34;;;28.87
61703;BMP280;47622;47.726;3.298;2022-08-18T09:27:30;98909.13;;;28.51
61703;BMP280;47622;47.726;3.298;2022-08-18T09:29:59;98901.75;;;28.04
61703;BMP280;47622;47.726;3.298;2022-08-18T09:37:22;98896.13;;;26.99
61703;BMP280;47622;47.726;3.298;2022-08-18T09:40:09;98887.06;;;26.93
61703;BMP280;47622;47.726;3.298;2022-08-18T09:43:09;98883.28;;;27.36
61703;BMP280;47622;47.726;3.298;2022-08-18T09:45:58;98878.06;;;27.29
61703;BMP280;47622;47.726;3.298;2022-08-18T09:48:31;98871.34;;;27.20
61703;BMP280;47622;47.726;3.298;2022-08-18T09:51:31;98872.66;;;27.29
61703;BMP280;47622;47.726;3.298;2022-08-18T09:54:14;98865.59;;;27.89
61703;BMP280;47622;47.726;3.298;2022-08-18T10:02:00;98875.97;;;29.63
61703;BMP280;47622;47.726;3.298;2022-08-18T10:04:45;98881.53;;;30.57
61703;BMP280;47622;47.726;3.298;2022-08-18T10:10:29;98878.50;;;30.73
61703;BMP280;47622;47.726;3.298;2022-08-18T10:16:12;98894.38;;;32.34
61703;BMP280;47622;47.726;3.298;2022-08-18T10:24:22;98905.94;;;31.54
61703;BMP280;47622;47.726;3.298;2022-08-18T10:34:37;98899.06;;;28.76
61703;BMP280;47622;47.726;3.298;2022-08-18T10:39:58;98910.63;;;28.77
61703;BMP280;47622;47.726;3.298;2022-08-18T10:42:42;98913.50;;;28.23
61703;BMP280;47622;47.726;3.298;2022-08-18T10:45:25;98919.81;;;27.78
61703;BMP280;47622;47.726;3.298;2022-08-18T10:48:21;98919.38;;;27.92
61703;BMP280;47622;47.726;3.298;2022-08-18T10:58:42;98928.28;;;28.31
61703;BMP280;47622;47.726;3.298;2022-08-18T11:01:28;98924.00;;;27.67
61703;BMP280;47622;47.726;3.298;2022-08-18T11:04:26;98924.63;;;27.13
61703;BMP280;47622;47.726;3.298;2022-08-18T11:07:04;98926.06;;;27.01
61703;BMP280;47622;47.726;3.298;2022-08-18T11:09:31;98921.34;;;27.21
61703;BMP280;47622;47.726;3.298;2022-08-18T11:11:59;98922.06;;;26.77
61703;BMP280;47622;47.726;3.298;2022-08-18T11:14:44;98917.19;;;26.56
61703;BMP280;47622;47.726;3.298;2022-08-18T11:19:51;98899.00;;;26.92
61703;BMP280;47622;47.726;3.298;2022-08-18T11:22:32;98904.16;;;27.32
61703;BMP280;47622;47.726;3.298;2022-08-18T11:25:00;98904.41;;;27.50
61703;BMP280;47622;47.726;3.298;2022-08-18T11:27:28;98904.75;;;26.78
61703;BMP280;47622;47.726;3.298;2022-08-18T11:29:59;98906.50;;;27.01
61703;BMP280;47622;47.726;3.298;2022-08-18T11:32:37;98904.63;;;27.14
61703;BMP280;47622;47.726;3.298;2022-08-18T11:37:43;98899.22;;;27.43
61703;BMP280;47622;47.726;3.298;2022-08-18T11:40:27;98901.69;;;27.08
61703;BMP280;47622;47.726;3.298;2022-08-18T11:43:00;98899.03;;;27.50
61703;BMP280;47622;47.726;3.298;2022-08-18T11:45:51;98898.44;;;27.71
61703;BMP280;47622;47.726;3.298;2022-08-18T11:48:42;98902.28;;;28.71
61703;BMP280;47622;47.726;3.298;2022-08-18T11:51:20;98897.41;;;29.88
61703;BMP280;47622;47.726;3.298;2022-08-18T11:56:23;98891.84;;;30.31
61703;BMP280;47622;47.726;3.298;2022-08-18T11:58:59;98891.28;;;29.13
61703;BMP280;47622;47.726;3.298;2022-08-18T12:04:14;98879.84;;;28.74
61703;BMP280;47622;47.726;3.298;2022-08-18T12:12:00;98901.38;;;28.65
61703;BMP280;47622;47.726;3.298;2022-08-18T12:14:30;98888.53;;;29.35
61703;BMP280;47622;47.726;3.298;2022-08-18T12:16:56;98892.25;;;30.12
61703;BMP280;47622;47.726;3.298;2022-08-18T12:19:23;98891.94;;;30.10
61703;BMP280;47622;47.726;3.298;2022-08-18T12:21:57;98889.19;;;30.95
61703;BMP280;47622;47.726;3.298;2022-08-18T12:24:26;98896.91;;;31.48
61703;BMP280;47622;47.726;3.298;2022-08-18T12:26:52;98893.75;;;31.49
61703;BMP280;47622;47.726;3.298;2022-08-18T12:29:18;98893.91;;;31.46
61703;BMP280;47622;47.726;3.298;2022-08-18T12:31:46;98888.09;;;30.56
61703;BMP280;47622;47.726;3.298;2022-08-18T12:34:12;98885.75;;;30.00
61703;BMP280;47622;47.726;3.298;2022-08-18T12:36:38;98890.47;;;29.87
61703;BMP280;47622;47.726;3.298;2022-08-18T12:39:05;98892.41;;;30.17
61703;BMP280;47622;47.726;3.298;2022-08-18T12:41:31;98892.78;;;30.83
61703;BMP280;47622;47.726;3.298;2022-08-18T12:43:57;98889.00;;;30.62
61703;BMP280;47622;47.726;3.298;2022-08-18T12:46:23;98885.84;;;30.46
61703;BMP280;47622;47.726;3.298;2022-08-18T12:48:48;98892.09;;;30.06
61703;BMP280;47622;47.726;3.298;2022-08-18T12:51:15;98878.47;;;30.55
61703;BMP280;47622;47.726;3.298;2022-08-18T12:53:41;98873.97;;;30.98
61703;BMP280;47622;47.726;3.298;2022-08-18T12:56:21;98874.16;;;31.36
61703;BMP280;47622;47.726;3.298;2022-08-18T12:58:48;98872.72;;;31.68
61703;BMP280;47622;47.726;3.298;2022-08-18T13:01:17;98865.66;;;31.61
61703;BMP280;47622;47.726;3.298;2022-08-18T13:03:44;98869.38;;;31.73
61703;BMP280;47622;47.726;3.298;2022-08-18T13:06:12;98864.78;;;31.88
61703;BMP280;47622;47.726;3.298;2022-08-18T13:08:38;98862.91;;;32.27
61703;BMP280;47622;47.726;3.298;2022-08-18T13:11:04;98861.41;;;32.79
61703;BMP280;47622;47.726;3.298;2022-08-18T13:13:35;98867.31;;;33.07
61703;BMP280;47622;47.726;3.298;2022-08-18T13:16:02;98852.97;;;32.24
61703;BMP280;47622;47.726;3.298;2022-08-18T13:18:29;98862.38;;;32.91
61703;BMP280;47622;47.726;3.298;2022-08-18T13:20:56;98859.44;;;32.95
61703;BMP280;47622;47.726;3.298;2022-08-18T13:23:22;98860.00;;;32.69
61703;BMP280;47622;47.726;3.298;2022-08-18T13:25:48;98865.00;;;32.47
61703;BMP280;47622;47.726;3.298;2022-08-18T13:28:14;98853.66;;;31.53
61703;BMP280;47622;47.726;3.298;2022-08-18T13:30:40;98847.66;;;30.71
61703;BMP280;47622;47.726;3.298;2022-08-18T13:33:06;98858.94;;;29.93
61703;BMP280;47622;47.726;3.298;2022-08-18T13:35:32;98853.59;;;29.71
61703;BMP280;47622;47.726;3.298;2022-08-18T13:37:58;98844.75;;;28.96
61703;BMP280;47622;47.726;3.298;2022-08-18T13:40:24;98842.78;;;28.75
61703;BMP280;47622;47.726;3.298;2022-08-18T13:42:50;98855.69;;;28.58
61703;BMP280;47622;47.726;3.298;2022-08-18T13:45:19;98862.28;;;28.92
61703;BMP280;47622;47.726;3.298;2022-08-18T13:47:46;98849.50;;;28.70
61703;BMP280;47622;47.726;3.298;2022-08-18T13:50:14;98846.56;;;28.43
61703;BMP280;47622;47.726;3.298;2022-08-18T13:52:41;98857.09;;;28.63
61703;BMP280;47622;47.726;3.298;2022-08-18T13:55:13;98874.72;;;29.11
61703;BMP280;47622;47.726;3.298;2022-08-18T13:57:40;98866.75;;;27.75
61703;BMP280;47622;47.726;3.298;2022-08-18T14:00:17;98870.94;;;26.77
61703;BMP280;47622;47.726;3.298;2022-08-18T14:02:46;98867.28;;;26.02
61703;BMP280;47622;47.726;3.298;2022-08-18T14:05:13;98871.38;;;25.08
61703;BMP280;47622;47.726;3.298;2022-08-18T14:07:41;98885.03;;;24.67
61703;BMP280;47622;47.726;3.298;2022-08-18T14:10:07;98892.44;;;24.86
61703;BMP280;47622;47.726;3.298;2022-08-18T14:12:35;98888.75;;;24.50
61703;BMP280;47622;47.726;3.298;2022-08-18T14:15:06;98901.53;;;24.39
61703;BMP280;47622;47.726;3.298;2022-08-18T14:17:33;98905.75;;;24.40
61703;BMP280;47622;47.726;3.298;2022-08-18T14:19:59;98913.97;;;24.26
61703;BMP280;47622;47.726;3.298;2022-08-18T14:22:43;98911.00;;;23.86
61703;BMP280;47622;47.726;3.298;2022-08-18T14:25:28;98917.03;;;23.53
61703;BMP280;47622;47.726;3.298;2022-08-18T14:28:13;98924.16;;;23.32
61703;BMP280;47622;47.726;3.298;2022-08-18T14:30:42;98922.13;;;22.95
61703;BMP280;47622;47.726;3.298;2022-08-18T14:33:08;98919.72;;;22.49
61703;BMP280;47622;47.726;3.298;2022-08-18T14:35:35;98915.06;;;22.57
61703;BMP280;47622;47.726;3.298;2022-08-18T14:38:01;98924.31;;;22.42
61703;BMP280;47622;47.726;3.298;2022-08-18T14:40:30;98929.28;;;22.39
61703;BMP280;47622;47.726;3.298;2022-08-18T14:42:56;98930.84;;;22.30
61703;BMP280;47622;47.726;3.298;2022-08-18T14:45:24;98942.28;;;22.37
61703;BMP280;47622;47.726;3.298;2022-08-18T14:47:50;98946.47;;;22.42
61703;BMP280;47622;47.726;3.298;2022-08-18T14:50:21;98938.91;;;22.23
61703;BMP280;47622;47.726;3.298;2022-08-18T14:52:47;98944.59;;;22.28
61703;BMP280;47622;47.726;3.298;2022-08-18T14:55:14;98946.06;;;22.40
61703;BMP280;47622;47.726;3.298;2022-08-18T14:57:40;98942.31;;;22.34
61703;BMP280;47622;47.726;3.298;2022-08-18T15:00:10;98948.00;;;22.39
61703;BMP280;47622;47.726;3.298;2022-08-18T15:02:44;98943.38;;;22.47
61703;BMP280;47622;47.726;3.298;2022-08-18T15:05:12;98938.06;;;22.40
61703;BMP280;47622;47.726;3.298;2022-08-18T15:07:38;98941.50;;;22.44
61703;BMP280;47622;47.726;3.298;2022-08-18T15:10:06;98947.97;;;22.50
61703;BMP280;47622;47.726;3.298;2022-08-18T15:12:33;98933.00;;;22.63
61703;BMP280;47622;47.726;3.298;2022-08-18T15:14:59;98936.81;;;22.69
61703;BMP280;47622;47.726;3.298;2022-08-18T15:17:25;98940.53;;;22.83
61703;BMP280;47622;47.726;3.298;2022-08-18T15:19:54;98936.69;;;22.84
61703;BMP280;47622;47.726;3.298;2022-08-18T15:22:20;98927.50;;;22.92
61703;BMP280;47622;47.726;3.298;2022-08-18T15:25:06;98926.13;;;22.69
61703;BMP280;47622;47.726;3.298;2022-08-18T15:27:50;98917.28;;;22.72
61703;BMP280;47622;47.726;3.298;2022-08-18T15:30:17;98918.69;;;22.95
61703;BMP280;47622;47.726;3.298;2022-08-18T15:32:44;98913.28;;;23.02
61703;BMP280;47622;47.726;3.298;2022-08-18T15:35:14;98910.66;;;22.95
61703;BMP280;47622;47.726;3.298;2022-08-18T15:37:43;98911.00;;;22.97
61703;BMP280;47622;47.726;3.298;2022-08-18T15:40:14;98906.91;;;22.85
61703;BMP280;47622;47.726;3.298;2022-08-18T15:42:50;98897.31;;;22.88
61703;BMP280;47622;47.726;3.298;2022-08-18T15:45:18;98901.84;;;22.98
61703;BMP280;47622;47.726;3.298;2022-08-18T15:47:45;98903.06;;;22.90
61703;BMP280;47622;47.726;3.298;2022-08-18T15:50:14;98903.34;;;23.02
61703;BMP280;47622;47.726;3.298;2022-08-18T15:52:47;98899.91;;;22.98
61703;BMP280;47622;47.726;3.298;2022-08-18T15:55:17;98895.34;;;22.99
61703;BMP280;47622;47.726;3.298;2022-08-18T15:57:44;98903.53;;;23.26
61703;BMP280;47622;47.726;3.298;2022-08-18T16:00:11;98898.47;;;23.38
61703;BMP280;47622;47.726;3.298;2022-08-18T16:02:38;98896.50;;;23.42
61703;BMP280;47622;47.726;3.298;2022-08-18T16:05:05;98898.81;;;23.40
61703;BMP280;47622;47.726;3.298;2022-08-18T16:07:32;98896.44;;;23.50
61703;BMP280;47622;47.726;3.298;2022-08-18T16:09:58;98901.25;;;23.65
61703;BMP280;47622;47.726;3.298;2022-08-18T16:12:23;98896.22;;;23.71
61703;BMP280;47622;47.726;3.298;2022-08-18T16:14:49;98905.28;;;23.84
61703;BMP280;47622;47.726;3.298;2022-08-18T16:17:17;98892.25;;;23.86
61703;BMP280;47622;47.726;3.298;2022-08-18T16:19:45;98901.28;;;23.99
61703;BMP280;47622;47.726;3.298;2022-08-18T16:22:11;98911.84;;;24.13
61703;BMP280;47622;47.726;3.298;2022-08-18T16:24:37;98914.22;;;24.04